createdAt,value
2022-09-07T00:00:00.399Z,15.80
2022-09-07T00:02:27.198Z,15.80
2022-09-07T00:04:54.066Z,15.80
2022-09-07T00:07:20.878Z,15.80
2022-09-07T00:09:48.103Z,15.80
2022-09-07T00:12:14.951Z,15.80
2022-09-07T00:14:41.807Z,15.80
2022-09-07T00:17:08.740Z,15.80
2022-09-07T00:19:35.618Z,15.80
2022-09-07T00:22:02.435Z,15.80
2022-09-07T00:24:29.318Z,15.90
2022-09-07T00:26:56.646Z,15.80
2022-09-07T00:29:23.838Z,15.80
2022-09-07T00:31:50.733Z,15.70
2022-09-07T00:34:17.602Z,15.70
2022-09-07T00:36:44.535Z,15.60
2022-09-07T00:39:11.372Z,15.60
2022-09-07T00:41:38.235Z,15.70
2022-09-07T00:44:38.853Z,15.60
2022-09-07T00:47:15.743Z,15.60
2022-09-07T00:49:45.780Z,15.60
2022-09-07T00:52:13.912Z,15.60
2022-09-07T00:54:45.640Z,15.60
2022-09-07T00:57:13.363Z,15.50
2022-09-07T00:59:44.838Z,15.50
2022-09-07T01:02:13.748Z,15.50
2022-09-07T01:04:44.552Z,15.50
2022-09-07T01:07:11.553Z,15.40
2022-09-07T01:09:40.102Z,15.50
2022-09-07T01:12:07.183Z,15.50
2022-09-07T01:14:42.818Z,15.50
2022-09-07T01:17:20.670Z,15.60
2022-09-07T01:20:29.590Z,15.60
2022-09-07T01:23:38.114Z,15.60
2022-09-07T01:26:19.825Z,15.50
2022-09-07T01:28:50.738Z,15.40
2022-09-07T01:31:37.647Z,15.40
2022-09-07T01:34:23.930Z,15.40
2022-09-07T01:36:59.159Z,15.40
2022-09-07T01:39:35.322Z,15.40
2022-09-07T01:42:08.662Z,15.60
2022-09-07T01:44:53.629Z,15.60
2022-09-07T01:47:23.258Z,15.60
2022-09-07T01:50:07.577Z,15.60
2022-09-07T01:52:38.169Z,15.60
2022-09-07T01:55:37.429Z,15.60
2022-09-07T01:58:32.737Z,15.60
2022-09-07T02:01:07.712Z,15.50
2022-09-07T02:03:37.529Z,15.50
2022-09-07T02:06:29.439Z,15.50
2022-09-07T02:09:04.539Z,15.50
2022-09-07T02:11:38.010Z,15.50
2022-09-07T02:14:27.513Z,15.60
2022-09-07T02:17:02.170Z,15.60
2022-09-07T02:19:34.923Z,15.50
2022-09-07T02:22:08.658Z,15.60
2022-09-07T02:24:45.444Z,15.50
2022-09-07T02:27:17.281Z,15.50
2022-09-07T02:29:44.378Z,15.40
2022-09-07T02:32:11.442Z,15.40
2022-09-07T02:34:38.603Z,15.30
2022-09-07T02:37:08.952Z,15.30
2022-09-07T02:39:35.961Z,15.30
2022-09-07T02:42:03.298Z,15.20
2022-09-07T02:44:34.703Z,15.30
2022-09-07T02:47:20.472Z,15.30
2022-09-07T02:50:06.141Z,15.40
2022-09-07T02:52:57.779Z,15.40
2022-09-07T02:55:52.547Z,15.50
2022-09-07T02:58:44.331Z,15.40
2022-09-07T03:01:27.495Z,15.40
2022-09-07T03:04:12.410Z,15.40
2022-09-07T03:06:49.530Z,15.70
2022-09-07T03:09:20.837Z,15.50
2022-09-07T03:11:48.376Z,15.40
2022-09-07T03:14:16.981Z,15.40
2022-09-07T03:16:44.216Z,15.40
2022-09-07T03:19:11.119Z,15.50
2022-09-07T03:21:38.042Z,15.60
2022-09-07T03:24:05.384Z,15.60
2022-09-07T03:26:32.450Z,15.50
2022-09-07T03:28:59.818Z,15.50
2022-09-07T03:31:26.751Z,15.40
2022-09-07T03:33:54.980Z,15.40
2022-09-07T03:36:21.853Z,15.50
2022-09-07T03:38:48.699Z,15.50
2022-09-07T03:41:15.540Z,15.50
2022-09-07T03:43:42.357Z,15.50
2022-09-07T03:46:10.552Z,15.50
2022-09-07T03:48:39.364Z,15.50
2022-09-07T03:51:09.571Z,15.50
2022-09-07T03:53:38.473Z,15.60
2022-09-07T03:56:14.032Z,15.60
2022-09-07T03:58:40.966Z,15.70
2022-09-07T04:01:15.377Z,15.70
2022-09-07T04:03:43.090Z,15.70
2022-09-07T04:06:10.661Z,15.70
2022-09-07T04:08:38.673Z,15.60
2022-09-07T04:11:06.922Z,15.60
2022-09-07T04:13:35.999Z,15.60
2022-09-07T04:16:14.513Z,15.50
2022-09-07T04:18:41.816Z,15.60
2022-09-07T04:21:09.283Z,15.60
2022-09-07T04:23:41.542Z,15.60
2022-09-07T04:26:15.007Z,15.60
2022-09-07T04:28:41.955Z,15.40
2022-09-07T04:31:09.001Z,15.40
2022-09-07T04:33:35.944Z,15.40
2022-09-07T04:36:03.444Z,15.50
2022-09-07T04:38:30.939Z,15.50
2022-09-07T04:41:02.552Z,15.50
2022-09-07T04:43:29.848Z,15.50
2022-09-07T04:45:57.011Z,15.50
2022-09-07T04:48:24.598Z,15.50
2022-09-07T04:50:52.286Z,15.40
2022-09-07T04:53:19.794Z,15.40
2022-09-07T04:55:46.715Z,15.40
2022-09-07T04:58:13.849Z,15.40
2022-09-07T05:00:40.698Z,15.50
2022-09-07T05:03:07.561Z,15.40
2022-09-07T05:05:38.359Z,15.50
2022-09-07T05:08:05.276Z,15.50
2022-09-07T05:10:32.273Z,15.60
2022-09-07T05:12:59.819Z,15.50
2022-09-07T05:15:29.480Z,15.50
2022-09-07T05:17:57.792Z,15.50
2022-09-07T05:20:25.129Z,15.50
2022-09-07T05:22:59.592Z,15.60
2022-09-07T05:25:31.388Z,15.60
2022-09-07T05:27:58.246Z,15.60
2022-09-07T05:33:12.434Z,15.70
2022-09-07T05:35:39.563Z,15.70
2022-09-07T05:38:06.488Z,15.70
2022-09-07T05:40:37.215Z,15.70
2022-09-07T05:43:06.783Z,15.80
2022-09-07T05:45:33.673Z,15.80
2022-09-07T05:48:00.558Z,15.80
2022-09-07T05:50:27.439Z,15.80
2022-09-07T05:52:54.335Z,15.90
2022-09-07T05:55:29.917Z,16.00
2022-09-07T05:57:57.660Z,15.90
2022-09-07T06:00:24.519Z,15.90
2022-09-07T06:02:51.428Z,16.00
2022-09-07T06:05:18.389Z,16.10
2022-09-07T06:07:48.148Z,16.10
2022-09-07T06:13:02.192Z,16.10
2022-09-07T06:15:29.213Z,16.10
2022-09-07T06:17:56.112Z,16.20
2022-09-07T06:20:22.965Z,16.20
2022-09-07T06:22:50.170Z,16.20
2022-09-07T06:25:17.368Z,16.20
2022-09-07T06:27:44.196Z,16.20
2022-09-07T06:30:11.267Z,16.40
2022-09-07T06:32:45.986Z,16.40
2022-09-07T06:35:13.770Z,16.40
2022-09-07T06:37:41.548Z,16.60
2022-09-07T06:40:11.126Z,16.60
2022-09-07T06:42:38.790Z,16.70
2022-09-07T06:45:06.258Z,16.80
2022-09-07T06:47:33.113Z,16.80
2022-09-07T06:49:59.942Z,16.90
2022-09-07T06:52:27.116Z,16.90
2022-09-07T06:55:01.441Z,17.00
2022-09-07T06:57:28.514Z,17.10
2022-09-07T06:59:55.375Z,17.20
2022-09-07T07:02:22.289Z,17.20
2022-09-07T07:04:50.027Z,17.30
2022-09-07T07:07:16.905Z,17.30
2022-09-07T07:09:43.770Z,17.30
2022-09-07T07:12:11.463Z,17.30
2022-09-07T07:14:43.935Z,17.20
2022-09-07T07:17:12.173Z,17.30
2022-09-07T07:19:38.991Z,17.30
2022-09-07T07:22:18.818Z,17.30
2022-09-07T07:24:52.785Z,17.30
2022-09-07T07:27:21.500Z,17.30
2022-09-07T07:29:48.805Z,17.30
2022-09-07T07:32:15.861Z,17.50
2022-09-07T07:34:42.635Z,17.50
2022-09-07T07:37:09.571Z,17.30
2022-09-07T07:42:23.291Z,17.40
2022-09-07T07:47:37.743Z,17.50
2022-09-07T07:55:44.155Z,17.50
2022-09-07T07:58:11.271Z,17.50
2022-09-07T08:00:53.754Z,17.60
2022-09-07T08:03:25.636Z,17.70
2022-09-07T08:05:52.956Z,17.80
2022-09-07T08:08:19.951Z,17.80
2022-09-07T08:10:47.772Z,17.70
2022-09-07T08:13:15.983Z,17.60
2022-09-07T08:15:46.256Z,17.80
2022-09-07T08:18:14.832Z,17.80
2022-09-07T08:20:42.097Z,17.90
2022-09-07T08:23:09.124Z,18.00
2022-09-07T08:25:36.065Z,18.10
2022-09-07T08:28:03.981Z,18.20
2022-09-07T08:30:30.758Z,18.30
2022-09-07T08:32:57.623Z,18.20
2022-09-07T08:35:24.499Z,18.30
2022-09-07T08:37:51.320Z,18.30
2022-09-07T08:40:19.170Z,18.40
2022-09-07T08:42:54.987Z,18.40
2022-09-07T08:45:28.298Z,18.50
2022-09-07T08:47:55.111Z,18.50
2022-09-07T08:50:21.999Z,18.60
2022-09-07T08:53:08.668Z,18.70
2022-09-07T08:55:43.026Z,18.60
2022-09-07T08:58:48.796Z,18.70
2022-09-07T09:01:34.481Z,18.70
2022-09-07T09:04:19.170Z,18.60
2022-09-07T09:07:21.567Z,18.60
2022-09-07T09:10:12.883Z,18.60
2022-09-07T09:13:06.599Z,18.50
2022-09-07T09:15:56.357Z,18.60
2022-09-07T09:18:41.583Z,18.50
2022-09-07T09:21:16.835Z,18.40
2022-09-07T09:23:47.305Z,18.40
2022-09-07T09:26:27.250Z,18.40
2022-09-07T09:28:55.122Z,18.50
2022-09-07T09:31:26.735Z,18.40
2022-09-07T09:34:05.925Z,18.60
2022-09-07T09:36:47.917Z,18.50
2022-09-07T09:39:35.636Z,18.50
2022-09-07T09:42:23.926Z,18.50
2022-09-07T09:44:51.119Z,18.50
2022-09-07T09:47:30.194Z,18.50
2022-09-07T09:50:01.194Z,18.40
2022-09-07T09:52:36.534Z,18.60
2022-09-07T09:55:34.450Z,18.40
2022-09-07T10:01:26.822Z,18.40
2022-09-07T10:06:26.021Z,18.40
2022-09-07T10:08:58.521Z,18.40
2022-09-07T10:14:37.419Z,18.20
2022-09-07T10:17:42.937Z,18.10
2022-09-07T10:20:18.833Z,18.00
2022-09-07T10:22:51.353Z,18.00
2022-09-07T10:25:37.423Z,18.00
2022-09-07T10:28:10.162Z,18.00
2022-09-07T10:31:07.344Z,18.00
2022-09-07T10:36:59.222Z,18.00
2022-09-07T10:39:30.701Z,17.90
2022-09-07T10:42:09.659Z,17.90
2022-09-07T10:44:54.723Z,17.90
2022-09-07T10:47:21.596Z,17.90
2022-09-07T10:50:24.468Z,17.80
2022-09-07T10:53:23.474Z,17.70
2022-09-07T10:56:22.849Z,17.80
2022-09-07T10:59:14.383Z,17.70
2022-09-07T11:02:22.873Z,17.70
2022-09-07T11:05:04.609Z,17.70
2022-09-07T11:07:50.584Z,17.70
2022-09-07T11:10:43.676Z,17.60
2022-09-07T11:13:16.204Z,17.60
2022-09-07T11:15:57.155Z,17.70
2022-09-07T11:18:35.283Z,17.70
2022-09-07T11:21:06.507Z,17.60
2022-09-07T11:23:42.928Z,17.60
2022-09-07T11:26:28.293Z,17.60
2022-09-07T11:31:57.239Z,17.50
2022-09-07T11:34:31.909Z,17.50
2022-09-07T11:37:06.428Z,17.40
2022-09-07T11:39:43.825Z,17.50
2022-09-07T11:42:43.579Z,17.50
2022-09-07T11:45:22.935Z,17.50
2022-09-07T11:47:51.502Z,17.60
2022-09-07T11:50:23.042Z,17.80
2022-09-07T11:52:55.060Z,17.90
2022-09-07T11:55:27.358Z,18.10
2022-09-07T11:58:13.183Z,18.20
2022-09-07T12:01:01.819Z,18.30
2022-09-07T12:04:15.459Z,18.20
2022-09-07T12:06:54.838Z,18.40
2022-09-07T12:09:43.894Z,18.50
2022-09-07T12:12:19.532Z,18.60
2022-09-07T12:15:27.597Z,18.90
2022-09-07T12:18:18.289Z,19.10
2022-09-07T12:20:47.043Z,19.20
2022-09-07T12:23:16.863Z,19.30
2022-09-07T12:25:48.956Z,19.40
2022-09-07T12:28:36.164Z,19.30
2022-09-07T12:31:05.880Z,19.50
2022-09-07T12:33:38.543Z,19.50
2022-09-07T12:36:28.340Z,19.40
2022-09-07T12:39:19.573Z,19.50
2022-09-07T12:45:30.657Z,19.80
2022-09-07T12:47:59.897Z,20.30
2022-09-07T12:50:29.809Z,20.60
2022-09-07T12:53:35.536Z,21.00
2022-09-07T12:56:18.320Z,21.30
2022-09-07T12:59:00.354Z,21.50
2022-09-07T13:01:46.202Z,21.50
2022-09-07T13:04:50.072Z,21.30
2022-09-07T13:07:22.748Z,21.20
2022-09-07T13:10:01.226Z,21.30
2022-09-07T13:15:42.646Z,21.40
2022-09-07T13:18:25.857Z,21.60
2022-09-07T13:21:27.529Z,21.60
2022-09-07T13:27:05.957Z,21.40
2022-09-07T13:29:49.774Z,21.60
2022-09-07T13:33:07.898Z,21.60
2022-09-07T13:35:24.517Z,21.70
2022-09-07T13:37:57.998Z,21.90
2022-09-07T13:40:46.755Z,21.90
2022-09-07T13:43:22.608Z,22.10
2022-09-07T13:45:55.555Z,22.20
2022-09-07T13:48:34.172Z,22.20
2022-09-07T13:51:24.226Z,22.20
2022-09-07T13:54:06.230Z,22.20
2022-09-07T13:56:55.190Z,22.50
2022-09-07T13:59:28.575Z,22.80
2022-09-07T14:01:56.118Z,22.80
2022-09-07T14:04:31.258Z,22.60
2022-09-07T14:07:06.827Z,22.60
2022-09-07T14:09:34.928Z,22.80
2022-09-07T14:12:02.111Z,22.50
2022-09-07T14:14:32.984Z,22.50
2022-09-07T14:16:59.885Z,22.40
2022-09-07T14:19:50.970Z,22.50
2022-09-07T14:22:24.756Z,22.60
2022-09-07T14:24:54.331Z,22.60
2022-09-07T14:27:26.690Z,22.70
2022-09-07T14:29:53.691Z,22.80
2022-09-07T14:32:25.599Z,22.80
2022-09-07T14:34:52.520Z,22.90
2022-09-07T14:37:24.454Z,23.00
2022-09-07T14:39:52.829Z,22.90
2022-09-07T14:42:23.619Z,22.80
2022-09-07T14:44:51.521Z,22.90
2022-09-07T14:47:38.236Z,22.90
2022-09-07T14:50:06.964Z,23.00
2022-09-07T14:53:33.253Z,23.00
2022-09-07T14:55:31.858Z,23.00
2022-09-07T14:58:13.743Z,23.10
2022-09-07T15:00:45.037Z,23.10
2022-09-07T15:03:34.352Z,23.10
2022-09-07T15:06:03.236Z,22.90
2022-09-07T15:08:56.009Z,22.80
2022-09-07T15:11:32.794Z,22.80
2022-09-07T15:14:10.602Z,22.70
2022-09-07T15:16:40.784Z,22.70
2022-09-07T15:19:16.693Z,22.90
2022-09-07T15:21:44.744Z,22.80
2022-09-07T15:24:11.827Z,22.80
2022-09-07T15:27:02.911Z,22.80
2022-09-07T15:29:30.630Z,22.90
2022-09-07T15:32:03.900Z,22.80
2022-09-07T15:34:32.501Z,22.80
2022-09-07T15:37:01.745Z,22.80
2022-09-07T15:39:29.882Z,22.80
2022-09-07T15:41:58.185Z,22.70
2022-09-07T15:44:28.478Z,22.60
2022-09-07T15:49:49.222Z,22.50
2022-09-07T15:52:17.741Z,22.60
2022-09-07T15:54:44.627Z,22.50
2022-09-07T15:59:58.527Z,22.60
2022-09-07T16:05:12.773Z,22.50
2022-09-07T16:10:31.124Z,22.40
2022-09-07T16:13:02.740Z,22.50
2022-09-07T16:15:31.758Z,22.40
2022-09-07T16:17:58.634Z,22.40
2022-09-07T16:20:25.614Z,22.50
2022-09-07T16:25:39.676Z,22.40
2022-09-07T16:28:07.038Z,22.30
2022-09-07T16:30:34.105Z,22.20
2022-09-07T16:33:01.043Z,22.00
2022-09-07T16:35:27.922Z,22.00
2022-09-07T16:40:41.887Z,21.80
2022-09-07T16:43:09.805Z,21.70
2022-09-07T16:48:23.771Z,21.50
2022-09-07T16:50:58.941Z,21.50
2022-09-07T16:53:29.692Z,21.50
2022-09-07T16:56:02.575Z,21.40
2022-09-07T16:58:38.684Z,21.40
2022-09-07T17:01:07.273Z,21.30
2022-09-07T17:03:35.956Z,21.30
2022-09-07T17:06:04.789Z,21.20
2022-09-07T17:08:33.604Z,21.20
2022-09-07T17:11:05.888Z,21.00
2022-09-07T17:13:34.280Z,21.00
2022-09-07T17:16:05.966Z,21.00
2022-09-07T17:21:20.659Z,20.90
2022-09-07T17:23:54.447Z,21.00
2022-09-07T17:26:23.661Z,20.90
2022-09-07T17:28:55.343Z,20.80
2022-09-07T17:34:15.042Z,20.70
2022-09-07T17:36:42.599Z,20.60
2022-09-07T17:39:18.780Z,20.40
2022-09-07T17:41:47.662Z,20.40
2022-09-07T17:44:15.449Z,20.30
2022-09-07T17:46:42.383Z,20.20
2022-09-07T17:49:13.880Z,20.20
2022-09-07T17:51:40.777Z,20.10
2022-09-07T17:54:11.580Z,20.20
2022-09-07T17:56:39.558Z,20.10
2022-09-07T18:01:55.897Z,20.10
2022-09-07T18:04:23.356Z,20.00
2022-09-07T18:06:51.039Z,19.90
2022-09-07T18:09:19.740Z,19.80
2022-09-07T18:11:48.548Z,19.70
2022-09-07T18:14:16.931Z,19.70
2022-09-07T18:16:45.978Z,19.60
2022-09-07T18:19:13.202Z,19.60
2022-09-07T18:21:42.475Z,19.70
2022-09-07T18:24:13.865Z,19.60
2022-09-07T18:26:41.285Z,19.50
2022-09-07T18:29:27.379Z,19.40
2022-09-07T18:31:55.134Z,19.30
2022-09-07T18:34:22.271Z,19.20
2022-09-07T18:36:49.212Z,19.10
2022-09-07T18:39:16.027Z,19.10
2022-09-07T18:41:42.939Z,19.00
2022-09-07T18:46:56.689Z,19.00
2022-09-07T18:49:24.648Z,19.00
2022-09-07T18:54:39.546Z,18.90
2022-09-07T18:57:07.010Z,18.80
2022-09-07T18:59:34.162Z,18.90
2022-09-07T19:02:04.272Z,18.90
2022-09-07T19:07:20.638Z,18.90
2022-09-07T19:09:48.379Z,18.90
2022-09-07T19:12:15.633Z,18.90
2022-09-07T19:14:42.506Z,18.90
2022-09-07T19:17:11.750Z,18.80
2022-09-07T19:19:39.632Z,18.80
2022-09-07T19:22:06.528Z,18.70
2022-09-07T19:24:33.456Z,18.70
2022-09-07T19:27:01.166Z,18.70
2022-09-07T19:29:29.088Z,18.60
2022-09-07T19:32:05.547Z,18.70
2022-09-07T19:34:37.562Z,18.80
2022-09-07T19:37:05.894Z,18.70
2022-09-07T19:39:33.031Z,18.60
2022-09-07T19:42:00.125Z,18.60
2022-09-07T19:44:27.905Z,18.60
2022-09-07T19:46:55.066Z,18.50
2022-09-07T19:49:22.069Z,18.50
2022-09-07T19:51:52.193Z,18.40
2022-09-07T19:54:19.186Z,18.50
2022-09-07T19:56:46.427Z,18.60
2022-09-07T19:59:14.359Z,18.40
2022-09-07T20:01:45.936Z,18.40
2022-09-07T20:04:19.507Z,18.40
2022-09-07T20:06:49.930Z,18.30
2022-09-07T20:09:18.393Z,18.20
2022-09-07T20:11:47.444Z,18.20
2022-09-07T20:14:15.671Z,18.20
2022-09-07T20:16:42.598Z,18.10
2022-09-07T20:19:12.070Z,18.00
2022-09-07T20:21:38.943Z,18.20
2022-09-07T20:24:06.089Z,18.30
2022-09-07T20:26:33.108Z,18.20
2022-09-07T20:29:23.778Z,18.10
2022-09-07T20:31:47.554Z,18.00
2022-09-07T20:34:14.633Z,17.90
2022-09-07T20:36:41.642Z,17.90
2022-09-07T20:39:13.735Z,18.00
2022-09-07T20:41:40.499Z,18.00
2022-09-07T20:44:07.303Z,18.00
2022-09-07T20:46:34.224Z,18.00
2022-09-07T20:49:01.828Z,18.00
2022-09-07T20:51:28.630Z,17.90
2022-09-07T20:53:55.865Z,17.80
2022-09-07T20:56:27.636Z,17.70
2022-09-07T20:59:02.447Z,17.70
2022-09-07T21:01:31.198Z,17.60
2022-09-07T21:04:00.466Z,17.80
2022-09-07T21:06:28.524Z,17.80
2022-09-07T21:08:57.185Z,17.70
2022-09-07T21:11:32.571Z,17.70
2022-09-07T21:14:09.935Z,17.60
2022-09-07T21:16:37.128Z,17.60
2022-09-07T21:19:07.123Z,17.60
2022-09-07T21:21:38.641Z,17.60
2022-09-07T21:24:06.770Z,17.60
2022-09-07T21:26:33.622Z,17.60
2022-09-07T21:29:02.621Z,17.50
2022-09-07T21:31:31.292Z,17.50
2022-09-07T21:33:59.817Z,17.50
2022-09-07T21:36:27.370Z,17.60
2022-09-07T21:38:54.421Z,17.60
2022-09-07T21:41:23.814Z,17.50
2022-09-07T21:43:58.358Z,17.50
2022-09-07T21:46:26.035Z,17.50
2022-09-07T21:48:54.711Z,17.50
2022-09-07T21:51:22.319Z,17.50
2022-09-07T21:53:57.519Z,17.50
2022-09-07T21:56:25.050Z,17.40
2022-09-07T21:58:56.308Z,17.40
2022-09-07T22:01:24.573Z,17.60
2022-09-07T22:03:57.440Z,17.50
2022-09-07T22:06:25.451Z,17.50
2022-09-07T22:08:52.312Z,17.40
2022-09-07T22:11:21.587Z,17.50
2022-09-07T22:13:48.385Z,17.40
2022-09-07T22:16:15.895Z,17.30
2022-09-07T22:18:45.289Z,17.30
2022-09-07T22:21:11.991Z,17.20
2022-09-07T22:23:45.416Z,17.20
2022-09-07T22:26:13.830Z,17.20
2022-09-07T22:28:41.337Z,17.20
2022-09-07T22:31:13.479Z,17.10
2022-09-07T22:33:41.215Z,17.00
2022-09-07T22:36:12.748Z,17.00
2022-09-07T22:38:40.712Z,16.90
2022-09-07T22:41:09.162Z,16.80
2022-09-07T22:43:37.183Z,16.80
2022-09-07T22:46:04.616Z,16.80
2022-09-07T22:48:31.560Z,16.70
2022-09-07T22:50:59.930Z,16.70
2022-09-07T22:53:28.332Z,16.80
2022-09-07T22:55:55.997Z,16.70
2022-09-07T22:58:23.849Z,16.70
2022-09-07T23:00:51.543Z,16.80
2022-09-07T23:03:18.905Z,16.80
2022-09-07T23:05:46.829Z,16.70
2022-09-07T23:08:13.745Z,16.70
2022-09-07T23:10:40.533Z,16.60
2022-09-07T23:13:09.034Z,16.70
2022-09-07T23:15:36.446Z,16.70
2022-09-07T23:18:03.236Z,16.80
2022-09-07T23:20:29.995Z,16.80
2022-09-07T23:22:56.812Z,16.80
2022-09-07T23:25:23.597Z,16.80
2022-09-07T23:27:50.356Z,16.70
2022-09-07T23:30:17.138Z,16.70
2022-09-07T23:32:43.865Z,16.70
2022-09-07T23:35:14.811Z,16.70
2022-09-07T23:37:43.504Z,16.70
2022-09-07T23:40:11.218Z,16.70
2022-09-07T23:42:38.089Z,16.70
2022-09-07T23:45:07.360Z,16.70
2022-09-07T23:47:34.775Z,16.70
2022-09-07T23:50:01.559Z,16.60
2022-09-07T23:52:28.447Z,16.60
2022-09-07T23:54:55.256Z,16.60
2022-09-07T23:57:22.021Z,16.50
2022-09-07T23:59:48.929Z,16.40
